sensor_id;sensor_type;location;lat;lon;timestamp;P1;durP1;ratioP1;P2;durP2;ratioP2
63193;SDS011;49289;51.670;5.624;2023-06-14T00:00:04;4.40;;;3.50;;
63193;SDS011;49289;51.670;5.624;2023-06-14T00:01:52;5.40;;;4.30;;
63193;SDS011;49289;51.670;5.624;2023-06-14T00:03:39;6.10;;;3.80;;
63193;SDS011;49289;51.670;5.624;2023-06-14T00:05:26;6.90;;;3.80;;
63193;SDS011;49289;51.670;5.624;2023-06-14T00:07:14;6.60;;;3.90;;
63193;SDS011;49289;51.670;5.624;2023-06-14T00:09:02;7.60;;;4.10;;
63193;SDS011;49289;51.670;5.624;2023-06-14T00:10:51;7.80;;;4.00;;
63193;SDS011;49289;51.670;5.624;2023-06-14T00:12:38;8.00;;;4.20;;
63193;SDS011;49289;51.670;5.624;2023-06-14T00:14:26;6.00;;;3.70;;
63193;SDS011;49289;51.670;5.624;2023-06-14T00:16:14;4.60;;;3.50;;
63193;SDS011;49289;51.670;5.624;2023-06-14T00:18:02;8.10;;;4.00;;
63193;SDS011;49289;51.670;5.624;2023-06-14T00:19:50;5.10;;;4.00;;
63193;SDS011;49289;51.670;5.624;2023-06-14T00:21:38;6.20;;;3.50;;
63193;SDS011;49289;51.670;5.624;2023-06-14T00:23:26;5.00;;;3.50;;
63193;SDS011;49289;51.670;5.624;2023-06-14T00:25:13;5.60;;;3.70;;
63193;SDS011;49289;51.670;5.624;2023-06-14T00:27:01;6.70;;;3.50;;
63193;SDS011;49289;51.670;5.624;2023-06-14T00:28:49;8.20;;;3.80;;
63193;SDS011;49289;51.670;5.624;2023-06-14T00:30:36;5.70;;;3.60;;
63193;SDS011;49289;51.670;5.624;2023-06-14T00:32:23;5.20;;;3.40;;
63193;SDS011;49289;51.670;5.624;2023-06-14T00:34:11;7.30;;;3.30;;
63193;SDS011;49289;51.670;5.624;2023-06-14T00:35:59;5.10;;;3.40;;
63193;SDS011;49289;51.670;5.624;2023-06-14T00:37:46;7.10;;;3.10;;
63193;SDS011;49289;51.670;5.624;2023-06-14T00:39:33;4.40;;;3.00;;
63193;SDS011;49289;51.670;5.624;2023-06-14T00:41:20;5.40;;;3.40;;
63193;SDS011;49289;51.670;5.624;2023-06-14T00:43:07;4.90;;;3.10;;
63193;SDS011;49289;51.670;5.624;2023-06-14T00:44:54;5.50;;;3.10;;
63193;SDS011;49289;51.670;5.624;2023-06-14T00:46:41;4.30;;;3.40;;
63193;SDS011;49289;51.670;5.624;2023-06-14T00:48:28;5.80;;;3.40;;
63193;SDS011;49289;51.670;5.624;2023-06-14T00:50:15;4.10;;;3.10;;
63193;SDS011;49289;51.670;5.624;2023-06-14T00:52:02;4.80;;;3.00;;
63193;SDS011;49289;51.670;5.624;2023-06-14T00:53:50;4.60;;;3.50;;
63193;SDS011;49289;51.670;5.624;2023-06-14T00:55:37;8.60;;;3.00;;
63193;SDS011;49289;51.670;5.624;2023-06-14T00:57:24;4.00;;;3.20;;
63193;SDS011;49289;51.670;5.624;2023-06-14T00:59:11;3.40;;;2.90;;
63193;SDS011;49289;51.670;5.624;2023-06-14T01:00:58;3.70;;;2.90;;
63193;SDS011;49289;51.670;5.624;2023-06-14T01:02:45;5.10;;;3.30;;
63193;SDS011;49289;51.670;5.624;2023-06-14T01:04:32;6.30;;;3.50;;
63193;SDS011;49289;51.670;5.624;2023-06-14T01:06:21;3.90;;;3.30;;
63193;SDS011;49289;51.670;5.624;2023-06-14T01:08:11;4.40;;;2.60;;
63193;SDS011;49289;51.670;5.624;2023-06-14T01:10:04;3.60;;;2.80;;
63193;SDS011;49289;51.670;5.624;2023-06-14T01:11:54;3.80;;;2.60;;
63193;SDS011;49289;51.670;5.624;2023-06-14T01:13:43;5.70;;;3.20;;
63193;SDS011;49289;51.670;5.624;2023-06-14T01:15:28;3.70;;;2.70;;
63193;SDS011;49289;51.670;5.624;2023-06-14T01:17:16;4.10;;;3.10;;
63193;SDS011;49289;51.670;5.624;2023-06-14T01:19:04;2.90;;;2.60;;
63193;SDS011;49289;51.670;5.624;2023-06-14T01:20:52;3.60;;;2.80;;
63193;SDS011;49289;51.670;5.624;2023-06-14T01:24:34;4.00;;;2.80;;
63193;SDS011;49289;51.670;5.624;2023-06-14T01:26:21;3.80;;;2.90;;
63193;SDS011;49289;51.670;5.624;2023-06-14T01:28:10;4.20;;;3.10;;
63193;SDS011;49289;51.670;5.624;2023-06-14T01:29:57;5.40;;;2.80;;
63193;SDS011;49289;51.670;5.624;2023-06-14T01:31:45;3.50;;;2.90;;
63193;SDS011;49289;51.670;5.624;2023-06-14T01:33:33;3.40;;;2.80;;
63193;SDS011;49289;51.670;5.624;2023-06-14T01:35:21;3.40;;;2.80;;
63193;SDS011;49289;51.670;5.624;2023-06-14T01:37:10;3.70;;;2.80;;
63193;SDS011;49289;51.670;5.624;2023-06-14T01:38:58;5.80;;;2.90;;
63193;SDS011;49289;51.670;5.624;2023-06-14T01:40:46;4.10;;;2.60;;
63193;SDS011;49289;51.670;5.624;2023-06-14T01:42:34;6.10;;;2.90;;
63193;SDS011;49289;51.670;5.624;2023-06-14T01:44:22;5.30;;;3.10;;
63193;SDS011;49289;51.670;5.624;2023-06-14T01:46:10;7.70;;;2.90;;
63193;SDS011;49289;51.670;5.624;2023-06-14T01:47:58;4.40;;;3.00;;
63193;SDS011;49289;51.670;5.624;2023-06-14T01:49:46;6.20;;;2.60;;
63193;SDS011;49289;51.670;5.624;2023-06-14T01:51:34;4.90;;;2.90;;
63193;SDS011;49289;51.670;5.624;2023-06-14T01:53:22;3.10;;;2.80;;
63193;SDS011;49289;51.670;5.624;2023-06-14T01:55:10;3.50;;;2.90;;
63193;SDS011;49289;51.670;5.624;2023-06-14T01:56:57;4.50;;;2.80;;
63193;SDS011;49289;51.670;5.624;2023-06-14T01:58:45;4.30;;;2.60;;
63193;SDS011;49289;51.670;5.624;2023-06-14T02:00:32;4.90;;;2.80;;
63193;SDS011;49289;51.670;5.624;2023-06-14T02:02:19;4.00;;;2.90;;
63193;SDS011;49289;51.670;5.624;2023-06-14T02:04:07;4.60;;;3.10;;
63193;SDS011;49289;51.670;5.624;2023-06-14T02:05:55;6.30;;;3.10;;
63193;SDS011;49289;51.670;5.624;2023-06-14T02:07:42;3.60;;;2.80;;
63193;SDS011;49289;51.670;5.624;2023-06-14T02:09:30;4.50;;;2.80;;
63193;SDS011;49289;51.670;5.624;2023-06-14T02:11:18;4.60;;;2.80;;
63193;SDS011;49289;51.670;5.624;2023-06-14T02:13:05;3.20;;;2.90;;
63193;SDS011;49289;51.670;5.624;2023-06-14T02:14:53;3.10;;;2.80;;
63193;SDS011;49289;51.670;5.624;2023-06-14T02:16:40;4.70;;;3.00;;
63193;SDS011;49289;51.670;5.624;2023-06-14T02:18:27;2.90;;;2.60;;
63193;SDS011;49289;51.670;5.624;2023-06-14T02:20:15;4.60;;;3.00;;
63193;SDS011;49289;51.670;5.624;2023-06-14T02:22:03;3.60;;;2.80;;
63193;SDS011;49289;51.670;5.624;2023-06-14T02:23:50;4.50;;;2.70;;
63193;SDS011;49289;51.670;5.624;2023-06-14T02:25:38;4.30;;;2.70;;
63193;SDS011;49289;51.670;5.624;2023-06-14T02:27:26;8.00;;;3.20;;
63193;SDS011;49289;51.670;5.624;2023-06-14T02:29:14;3.20;;;2.70;;
63193;SDS011;49289;51.670;5.624;2023-06-14T02:31:02;3.90;;;2.90;;
63193;SDS011;49289;51.670;5.624;2023-06-14T02:32:50;5.60;;;3.00;;
63193;SDS011;49289;51.670;5.624;2023-06-14T02:34:37;5.70;;;3.00;;
63193;SDS011;49289;51.670;5.624;2023-06-14T02:36:24;3.00;;;2.70;;
63193;SDS011;49289;51.670;5.624;2023-06-14T02:38:11;4.20;;;2.60;;
63193;SDS011;49289;51.670;5.624;2023-06-14T02:39:58;5.00;;;3.00;;
63193;SDS011;49289;51.670;5.624;2023-06-14T02:41:45;4.30;;;3.00;;
63193;SDS011;49289;51.670;5.624;2023-06-14T02:43:34;3.40;;;3.00;;
63193;SDS011;49289;51.670;5.624;2023-06-14T02:45:22;3.90;;;2.60;;
63193;SDS011;49289;51.670;5.624;2023-06-14T02:47:09;3.40;;;2.90;;
63193;SDS011;49289;51.670;5.624;2023-06-14T02:48:58;6.70;;;3.10;;
63193;SDS011;49289;51.670;5.624;2023-06-14T02:50:46;2.90;;;2.60;;
63193;SDS011;49289;51.670;5.624;2023-06-14T02:52:34;8.60;;;3.20;;
63193;SDS011;49289;51.670;5.624;2023-06-14T02:54:22;4.10;;;2.70;;
63193;SDS011;49289;51.670;5.624;2023-06-14T02:56:10;5.10;;;3.10;;
63193;SDS011;49289;51.670;5.624;2023-06-14T02:57:57;6.00;;;3.20;;
63193;SDS011;49289;51.670;5.624;2023-06-14T02:59:45;4.00;;;2.80;;
63193;SDS011;49289;51.670;5.624;2023-06-14T03:01:33;3.90;;;2.70;;
63193;SDS011;49289;51.670;5.624;2023-06-14T03:03:21;4.20;;;2.80;;
63193;SDS011;49289;51.670;5.624;2023-06-14T03:05:09;5.20;;;2.90;;
63193;SDS011;49289;51.670;5.624;2023-06-14T03:06:56;6.40;;;2.90;;
63193;SDS011;49289;51.670;5.624;2023-06-14T03:08:43;5.00;;;3.20;;
63193;SDS011;49289;51.670;5.624;2023-06-14T03:10:31;4.50;;;2.80;;
63193;SDS011;49289;51.670;5.624;2023-06-14T03:12:19;5.90;;;3.00;;
63193;SDS011;49289;51.670;5.624;2023-06-14T03:14:07;4.50;;;3.10;;
63193;SDS011;49289;51.670;5.624;2023-06-14T03:15:55;4.20;;;2.70;;
63193;SDS011;49289;51.670;5.624;2023-06-14T03:17:43;4.30;;;2.90;;
63193;SDS011;49289;51.670;5.624;2023-06-14T03:19:31;3.80;;;2.80;;
63193;SDS011;49289;51.670;5.624;2023-06-14T03:21:19;5.20;;;2.80;;
63193;SDS011;49289;51.670;5.624;2023-06-14T03:23:07;3.30;;;2.80;;
63193;SDS011;49289;51.670;5.624;2023-06-14T03:24:54;3.20;;;2.70;;
63193;SDS011;49289;51.670;5.624;2023-06-14T03:26:42;4.10;;;2.90;;
63193;SDS011;49289;51.670;5.624;2023-06-14T03:28:30;5.50;;;3.00;;
63193;SDS011;49289;51.670;5.624;2023-06-14T03:30:19;4.80;;;2.60;;
63193;SDS011;49289;51.670;5.624;2023-06-14T03:32:07;3.50;;;2.70;;
63193;SDS011;49289;51.670;5.624;2023-06-14T03:33:54;3.10;;;2.60;;
63193;SDS011;49289;51.670;5.624;2023-06-14T03:35:41;3.00;;;2.70;;
63193;SDS011;49289;51.670;5.624;2023-06-14T03:37:28;4.90;;;3.00;;
63193;SDS011;49289;51.670;5.624;2023-06-14T03:39:15;3.60;;;3.00;;
63193;SDS011;49289;51.670;5.624;2023-06-14T03:41:02;4.10;;;3.00;;
63193;SDS011;49289;51.670;5.624;2023-06-14T03:42:49;7.30;;;2.70;;
63193;SDS011;49289;51.670;5.624;2023-06-14T03:44:36;4.10;;;2.90;;
63193;SDS011;49289;51.670;5.624;2023-06-14T03:46:24;9.50;;;3.40;;
63193;SDS011;49289;51.670;5.624;2023-06-14T03:48:12;5.10;;;2.90;;
63193;SDS011;49289;51.670;5.624;2023-06-14T03:50:00;3.70;;;2.70;;
63193;SDS011;49289;51.670;5.624;2023-06-14T03:51:48;5.30;;;2.70;;
63193;SDS011;49289;51.670;5.624;2023-06-14T03:53:36;3.50;;;3.00;;
63193;SDS011;49289;51.670;5.624;2023-06-14T03:55:24;3.20;;;2.70;;
63193;SDS011;49289;51.670;5.624;2023-06-14T03:57:12;3.10;;;2.60;;
63193;SDS011;49289;51.670;5.624;2023-06-14T03:58:59;4.00;;;2.80;;
63193;SDS011;49289;51.670;5.624;2023-06-14T04:00:46;4.30;;;3.00;;
63193;SDS011;49289;51.670;5.624;2023-06-14T04:02:33;5.30;;;2.70;;
63193;SDS011;49289;51.670;5.624;2023-06-14T04:04:21;3.90;;;2.80;;
63193;SDS011;49289;51.670;5.624;2023-06-14T04:06:08;4.30;;;2.90;;
63193;SDS011;49289;51.670;5.624;2023-06-14T04:07:55;5.40;;;2.70;;
63193;SDS011;49289;51.670;5.624;2023-06-14T04:09:42;4.10;;;2.90;;
63193;SDS011;49289;51.670;5.624;2023-06-14T04:11:29;4.90;;;2.90;;
63193;SDS011;49289;51.670;5.624;2023-06-14T04:13:16;4.00;;;2.90;;
63193;SDS011;49289;51.670;5.624;2023-06-14T04:15:03;4.50;;;2.80;;
63193;SDS011;49289;51.670;5.624;2023-06-14T04:16:52;4.50;;;2.70;;
63193;SDS011;49289;51.670;5.624;2023-06-14T04:18:39;4.30;;;2.80;;
63193;SDS011;49289;51.670;5.624;2023-06-14T04:20:28;2.90;;;2.50;;
63193;SDS011;49289;51.670;5.624;2023-06-14T04:22:15;4.90;;;2.80;;
63193;SDS011;49289;51.670;5.624;2023-06-14T04:24:03;3.30;;;2.90;;
63193;SDS011;49289;51.670;5.624;2023-06-14T04:25:51;4.90;;;2.70;;
63193;SDS011;49289;51.670;5.624;2023-06-14T04:27:39;6.20;;;3.10;;
63193;SDS011;49289;51.670;5.624;2023-06-14T04:29:27;5.40;;;2.80;;
63193;SDS011;49289;51.670;5.624;2023-06-14T04:31:15;4.20;;;3.10;;
63193;SDS011;49289;51.670;5.624;2023-06-14T04:33:03;5.10;;;2.80;;
63193;SDS011;49289;51.670;5.624;2023-06-14T04:34:51;3.40;;;2.80;;
63193;SDS011;49289;51.670;5.624;2023-06-14T04:36:40;4.00;;;2.90;;
63193;SDS011;49289;51.670;5.624;2023-06-14T04:38:27;4.00;;;3.10;;
63193;SDS011;49289;51.670;5.624;2023-06-14T04:40:15;3.80;;;2.90;;
63193;SDS011;49289;51.670;5.624;2023-06-14T04:42:02;4.90;;;2.80;;
63193;SDS011;49289;51.670;5.624;2023-06-14T04:43:49;4.20;;;2.80;;
63193;SDS011;49289;51.670;5.624;2023-06-14T04:45:36;3.80;;;2.60;;
63193;SDS011;49289;51.670;5.624;2023-06-14T04:47:23;3.00;;;2.60;;
63193;SDS011;49289;51.670;5.624;2023-06-14T04:49:10;3.60;;;3.00;;
63193;SDS011;49289;51.670;5.624;2023-06-14T04:50:57;3.00;;;2.60;;
63193;SDS011;49289;51.670;5.624;2023-06-14T04:52:44;3.50;;;3.00;;
63193;SDS011;49289;51.670;5.624;2023-06-14T04:54:31;4.90;;;3.10;;
63193;SDS011;49289;51.670;5.624;2023-06-14T04:56:18;4.50;;;2.80;;
63193;SDS011;49289;51.670;5.624;2023-06-14T04:58:05;4.40;;;3.10;;
63193;SDS011;49289;51.670;5.624;2023-06-14T04:59:56;3.50;;;2.70;;
63193;SDS011;49289;51.670;5.624;2023-06-14T05:01:43;4.10;;;2.70;;
63193;SDS011;49289;51.670;5.624;2023-06-14T05:03:30;4.10;;;3.50;;
63193;SDS011;49289;51.670;5.624;2023-06-14T05:05:17;5.10;;;2.90;;
63193;SDS011;49289;51.670;5.624;2023-06-14T05:07:04;4.50;;;2.70;;
63193;SDS011;49289;51.670;5.624;2023-06-14T05:08:53;3.80;;;2.60;;
63193;SDS011;49289;51.670;5.624;2023-06-14T05:10:40;7.00;;;2.70;;
63193;SDS011;49289;51.670;5.624;2023-06-14T05:12:28;3.60;;;2.80;;
63193;SDS011;49289;51.670;5.624;2023-06-14T05:14:16;4.10;;;2.80;;
63193;SDS011;49289;51.670;5.624;2023-06-14T05:16:04;4.50;;;2.90;;
63193;SDS011;49289;51.670;5.624;2023-06-14T05:17:51;3.30;;;3.00;;
63193;SDS011;49289;51.670;5.624;2023-06-14T05:19:38;3.60;;;3.00;;
63193;SDS011;49289;51.670;5.624;2023-06-14T05:21:25;4.60;;;2.90;;
63193;SDS011;49289;51.670;5.624;2023-06-14T05:23:12;3.50;;;2.70;;
63193;SDS011;49289;51.670;5.624;2023-06-14T05:24:59;6.60;;;3.20;;
63193;SDS011;49289;51.670;5.624;2023-06-14T05:26:46;4.90;;;2.90;;
63193;SDS011;49289;51.670;5.624;2023-06-14T05:28:33;3.00;;;2.70;;
63193;SDS011;49289;51.670;5.624;2023-06-14T05:30:20;9.20;;;2.80;;
63193;SDS011;49289;51.670;5.624;2023-06-14T05:32:08;3.60;;;2.90;;
63193;SDS011;49289;51.670;5.624;2023-06-14T05:33:56;4.10;;;2.90;;
63193;SDS011;49289;51.670;5.624;2023-06-14T05:35:44;3.10;;;2.70;;
63193;SDS011;49289;51.670;5.624;2023-06-14T05:37:32;5.70;;;2.90;;
63193;SDS011;49289;51.670;5.624;2023-06-14T05:39:20;6.30;;;3.00;;
63193;SDS011;49289;51.670;5.624;2023-06-14T05:41:07;6.40;;;3.20;;
63193;SDS011;49289;51.670;5.624;2023-06-14T05:42:55;5.10;;;2.90;;
63193;SDS011;49289;51.670;5.624;2023-06-14T05:44:43;5.80;;;3.10;;
63193;SDS011;49289;51.670;5.624;2023-06-14T05:46:31;3.90;;;2.70;;
63193;SDS011;49289;51.670;5.624;2023-06-14T05:48:19;4.70;;;3.20;;
63193;SDS011;49289;51.670;5.624;2023-06-14T05:50:08;4.70;;;2.80;;
63193;SDS011;49289;51.670;5.624;2023-06-14T05:51:55;4.50;;;2.90;;
63193;SDS011;49289;51.670;5.624;2023-06-14T05:53:42;4.60;;;3.00;;
63193;SDS011;49289;51.670;5.624;2023-06-14T05:55:29;6.50;;;3.00;;
63193;SDS011;49289;51.670;5.624;2023-06-14T05:57:16;6.20;;;3.00;;
63193;SDS011;49289;51.670;5.624;2023-06-14T05:59:03;4.30;;;2.90;;
63193;SDS011;49289;51.670;5.624;2023-06-14T06:00:50;4.50;;;3.10;;
63193;SDS011;49289;51.670;5.624;2023-06-14T06:02:37;6.10;;;2.90;;
63193;SDS011;49289;51.670;5.624;2023-06-14T06:04:26;5.70;;;3.10;;
63193;SDS011;49289;51.670;5.624;2023-06-14T06:06:13;3.80;;;2.70;;
63193;SDS011;49289;51.670;5.624;2023-06-14T06:08:00;6.50;;;2.90;;
63193;SDS011;49289;51.670;5.624;2023-06-14T06:09:47;5.30;;;3.00;;
63193;SDS011;49289;51.670;5.624;2023-06-14T06:11:34;2.90;;;2.70;;
63193;SDS011;49289;51.670;5.624;2023-06-14T06:13:21;4.50;;;2.80;;
63193;SDS011;49289;51.670;5.624;2023-06-14T06:15:08;6.00;;;3.30;;
63193;SDS011;49289;51.670;5.624;2023-06-14T06:16:56;4.30;;;2.90;;
63193;SDS011;49289;51.670;5.624;2023-06-14T06:18:44;3.10;;;2.70;;
63193;SDS011;49289;51.670;5.624;2023-06-14T06:20:33;4.20;;;3.10;;
63193;SDS011;49289;51.670;5.624;2023-06-14T06:22:21;5.80;;;2.90;;
63193;SDS011;49289;51.670;5.624;2023-06-14T06:24:09;4.90;;;2.90;;
63193;SDS011;49289;51.670;5.624;2023-06-14T06:25:57;3.70;;;2.90;;
63193;SDS011;49289;51.670;5.624;2023-06-14T06:27:45;4.60;;;2.70;;
63193;SDS011;49289;51.670;5.624;2023-06-14T06:29:32;6.40;;;2.60;;
63193;SDS011;49289;51.670;5.624;2023-06-14T06:31:20;5.50;;;2.90;;
63193;SDS011;49289;51.670;5.624;2023-06-14T06:33:08;4.40;;;2.80;;
63193;SDS011;49289;51.670;5.624;2023-06-14T06:34:56;3.10;;;2.80;;
63193;SDS011;49289;51.670;5.624;2023-06-14T06:36:44;3.50;;;2.80;;
63193;SDS011;49289;51.670;5.624;2023-06-14T06:38:32;3.50;;;2.70;;
63193;SDS011;49289;51.670;5.624;2023-06-14T06:40:19;4.20;;;2.60;;
63193;SDS011;49289;51.670;5.624;2023-06-14T06:42:08;4.20;;;2.80;;
63193;SDS011;49289;51.670;5.624;2023-06-14T06:43:56;4.90;;;2.70;;
63193;SDS011;49289;51.670;5.624;2023-06-14T06:45:44;3.10;;;2.80;;
63193;SDS011;49289;51.670;5.624;2023-06-14T06:47:31;3.60;;;2.70;;
63193;SDS011;49289;51.670;5.624;2023-06-14T06:49:19;4.90;;;2.50;;
63193;SDS011;49289;51.670;5.624;2023-06-14T06:51:08;4.40;;;2.70;;
63193;SDS011;49289;51.670;5.624;2023-06-14T06:52:55;3.00;;;2.70;;
63193;SDS011;49289;51.670;5.624;2023-06-14T06:54:43;4.60;;;2.80;;
63193;SDS011;49289;51.670;5.624;2023-06-14T06:56:31;4.70;;;2.80;;
63193;SDS011;49289;51.670;5.624;2023-06-14T06:58:19;4.10;;;2.80;;
63193;SDS011;49289;51.670;5.624;2023-06-14T07:00:07;3.90;;;2.60;;
63193;SDS011;49289;51.670;5.624;2023-06-14T07:01:56;5.40;;;3.00;;
63193;SDS011;49289;51.670;5.624;2023-06-14T07:03:43;4.80;;;2.80;;
63193;SDS011;49289;51.670;5.624;2023-06-14T07:05:30;4.70;;;3.00;;
63193;SDS011;49289;51.670;5.624;2023-06-14T07:07:17;4.00;;;2.60;;
63193;SDS011;49289;51.670;5.624;2023-06-14T07:09:04;3.20;;;2.70;;
63193;SDS011;49289;51.670;5.624;2023-06-14T07:10:51;5.00;;;2.40;;
63193;SDS011;49289;51.670;5.624;2023-06-14T07:12:38;4.70;;;2.80;;
63193;SDS011;49289;51.670;5.624;2023-06-14T07:14:25;3.40;;;2.80;;
63193;SDS011;49289;51.670;5.624;2023-06-14T07:16:12;4.50;;;2.80;;
63193;SDS011;49289;51.670;5.624;2023-06-14T07:18:00;3.50;;;2.90;;
63193;SDS011;49289;51.670;5.624;2023-06-14T07:19:48;5.50;;;2.80;;
63193;SDS011;49289;51.670;5.624;2023-06-14T07:21:36;3.50;;;2.70;;
63193;SDS011;49289;51.670;5.624;2023-06-14T07:23:24;5.80;;;2.60;;
63193;SDS011;49289;51.670;5.624;2023-06-14T07:25:12;2.80;;;2.40;;
63193;SDS011;49289;51.670;5.624;2023-06-14T07:26:59;6.10;;;2.70;;
63193;SDS011;49289;51.670;5.624;2023-06-14T07:28:46;3.30;;;2.30;;
63193;SDS011;49289;51.670;5.624;2023-06-14T07:30:33;2.60;;;2.40;;
63193;SDS011;49289;51.670;5.624;2023-06-14T07:32:21;3.80;;;2.90;;
63193;SDS011;49289;51.670;5.624;2023-06-14T07:34:09;3.00;;;2.70;;
63193;SDS011;49289;51.670;5.624;2023-06-14T07:35:57;3.70;;;2.70;;
63193;SDS011;49289;51.670;5.624;2023-06-14T07:37:45;3.10;;;2.40;;
63193;SDS011;49289;51.670;5.624;2023-06-14T07:39:33;3.70;;;2.60;;
63193;SDS011;49289;51.670;5.624;2023-06-14T07:41:21;4.10;;;2.70;;
63193;SDS011;49289;51.670;5.624;2023-06-14T07:43:09;5.70;;;2.50;;
63193;SDS011;49289;51.670;5.624;2023-06-14T07:44:58;5.30;;;2.60;;
63193;SDS011;49289;51.670;5.624;2023-06-14T07:46:46;4.80;;;2.60;;
63193;SDS011;49289;51.670;5.624;2023-06-14T07:48:33;2.90;;;2.30;;
63193;SDS011;49289;51.670;5.624;2023-06-14T07:50:20;3.70;;;2.40;;
63193;SDS011;49289;51.670;5.624;2023-06-14T07:52:07;3.60;;;2.40;;
63193;SDS011;49289;51.670;5.624;2023-06-14T07:53:54;2.40;;;2.20;;
63193;SDS011;49289;51.670;5.624;2023-06-14T07:55:41;3.10;;;2.20;;
63193;SDS011;49289;51.670;5.624;2023-06-14T07:57:28;2.80;;;2.20;;
63193;SDS011;49289;51.670;5.624;2023-06-14T07:59:15;6.40;;;2.60;;
63193;SDS011;49289;51.670;5.624;2023-06-14T08:01:02;6.00;;;2.50;;
63193;SDS011;49289;51.670;5.624;2023-06-14T08:02:49;4.30;;;2.20;;
63193;SDS011;49289;51.670;5.624;2023-06-14T08:04:37;10.40;;;2.30;;
63193;SDS011;49289;51.670;5.624;2023-06-14T08:06:24;2.40;;;2.20;;
63193;SDS011;49289;51.670;5.624;2023-06-14T08:08:13;2.30;;;2.10;;
63193;SDS011;49289;51.670;5.624;2023-06-14T08:10:01;2.70;;;2.00;;
63193;SDS011;49289;51.670;5.624;2023-06-14T08:11:48;2.10;;;2.00;;
63193;SDS011;49289;51.670;5.624;2023-06-14T08:13:35;5.50;;;2.10;;
63193;SDS011;49289;51.670;5.624;2023-06-14T08:15:22;2.30;;;2.00;;
63193;SDS011;49289;51.670;5.624;2023-06-14T08:17:09;2.10;;;1.90;;
63193;SDS011;49289;51.670;5.624;2023-06-14T08:18:57;4.90;;;2.00;;
63193;SDS011;49289;51.670;5.624;2023-06-14T08:20:44;2.00;;;1.80;;
63193;SDS011;49289;51.670;5.624;2023-06-14T08:22:32;2.20;;;1.70;;
63193;SDS011;49289;51.670;5.624;2023-06-14T08:24:20;2.20;;;1.80;;
63193;SDS011;49289;51.670;5.624;2023-06-14T08:26:08;4.00;;;2.00;;
63193;SDS011;49289;51.670;5.624;2023-06-14T08:27:56;2.80;;;2.00;;
63193;SDS011;49289;51.670;5.624;2023-06-14T08:29:44;2.20;;;2.00;;
63193;SDS011;49289;51.670;5.624;2023-06-14T08:31:32;4.00;;;1.80;;
63193;SDS011;49289;51.670;5.624;2023-06-14T08:33:20;2.70;;;1.80;;
63193;SDS011;49289;51.670;5.624;2023-06-14T08:35:09;3.70;;;2.30;;
63193;SDS011;49289;51.670;5.624;2023-06-14T08:36:56;3.50;;;1.90;;
63193;SDS011;49289;51.670;5.624;2023-06-14T08:38:43;2.30;;;1.70;;
63193;SDS011;49289;51.670;5.624;2023-06-14T08:40:30;3.20;;;1.60;;
63193;SDS011;49289;51.670;5.624;2023-06-14T08:42:17;2.30;;;1.50;;
63193;SDS011;49289;51.670;5.624;2023-06-14T08:44:04;5.30;;;1.50;;
63193;SDS011;49289;51.670;5.624;2023-06-14T08:45:51;2.50;;;1.60;;
63193;SDS011;49289;51.670;5.624;2023-06-14T08:47:38;1.80;;;1.50;;
63193;SDS011;49289;51.670;5.624;2023-06-14T08:49:25;1.20;;;1.20;;
63193;SDS011;49289;51.670;5.624;2023-06-14T08:51:12;2.10;;;1.30;;
63193;SDS011;49289;51.670;5.624;2023-06-14T08:53:00;2.70;;;1.30;;
63193;SDS011;49289;51.670;5.624;2023-06-14T08:54:46;4.20;;;1.50;;
63193;SDS011;49289;51.670;5.624;2023-06-14T08:56:33;2.40;;;1.50;;
63193;SDS011;49289;51.670;5.624;2023-06-14T08:58:20;1.50;;;1.40;;
63193;SDS011;49289;51.670;5.624;2023-06-14T09:00:07;2.00;;;1.30;;
63193;SDS011;49289;51.670;5.624;2023-06-14T09:01:57;1.80;;;1.40;;
63193;SDS011;49289;51.670;5.624;2023-06-14T09:03:45;1.30;;;1.20;;
63193;SDS011;49289;51.670;5.624;2023-06-14T09:05:33;1.50;;;1.40;;
63193;SDS011;49289;51.670;5.624;2023-06-14T09:07:21;1.30;;;1.20;;
63193;SDS011;49289;51.670;5.624;2023-06-14T09:09:09;6.60;;;1.50;;
63193;SDS011;49289;51.670;5.624;2023-06-14T09:10:58;1.20;;;0.90;;
63193;SDS011;49289;51.670;5.624;2023-06-14T09:12:46;2.00;;;1.40;;
63193;SDS011;49289;51.670;5.624;2023-06-14T09:14:34;1.20;;;1.20;;
63193;SDS011;49289;51.670;5.624;2023-06-14T09:16:22;2.20;;;1.20;;
63193;SDS011;49289;51.670;5.624;2023-06-14T09:18:10;1.80;;;1.40;;
63193;SDS011;49289;51.670;5.624;2023-06-14T09:19:58;2.50;;;1.20;;
63193;SDS011;49289;51.670;5.624;2023-06-14T09:21:46;1.50;;;1.40;;
63193;SDS011;49289;51.670;5.624;2023-06-14T09:23:34;1.60;;;1.30;;
63193;SDS011;49289;51.670;5.624;2023-06-14T09:25:22;1.50;;;1.30;;
63193;SDS011;49289;51.670;5.624;2023-06-14T09:27:11;2.10;;;1.20;;
63193;SDS011;49289;51.670;5.624;2023-06-14T09:29:00;1.70;;;1.30;;
63193;SDS011;49289;51.670;5.624;2023-06-14T09:30:47;3.70;;;1.30;;
63193;SDS011;49289;51.670;5.624;2023-06-14T09:32:34;1.30;;;1.20;;
63193;SDS011;49289;51.670;5.624;2023-06-14T09:34:22;1.50;;;1.30;;
63193;SDS011;49289;51.670;5.624;2023-06-14T09:36:10;1.30;;;1.20;;
63193;SDS011;49289;51.670;5.624;2023-06-14T09:37:57;2.80;;;1.30;;
63193;SDS011;49289;51.670;5.624;2023-06-14T09:39:54;1.40;;;1.30;;
63193;SDS011;49289;51.670;5.624;2023-06-14T09:41:42;1.50;;;1.40;;
63193;SDS011;49289;51.670;5.624;2023-06-14T09:43:30;1.90;;;1.50;;
63193;SDS011;49289;51.670;5.624;2023-06-14T09:45:18;2.10;;;1.50;;
63193;SDS011;49289;51.670;5.624;2023-06-14T09:47:05;1.50;;;1.40;;
63193;SDS011;49289;51.670;5.624;2023-06-14T09:48:52;1.40;;;1.30;;
63193;SDS011;49289;51.670;5.624;2023-06-14T09:50:39;2.30;;;1.50;;
63193;SDS011;49289;51.670;5.624;2023-06-14T09:52:26;2.50;;;1.70;;
63193;SDS011;49289;51.670;5.624;2023-06-14T09:54:14;2.50;;;1.50;;
63193;SDS011;49289;51.670;5.624;2023-06-14T09:56:00;5.70;;;1.80;;
63193;SDS011;49289;51.670;5.624;2023-06-14T09:57:47;2.70;;;1.50;;
63193;SDS011;49289;51.670;5.624;2023-06-14T09:59:34;1.90;;;1.40;;
63193;SDS011;49289;51.670;5.624;2023-06-14T10:01:22;1.60;;;1.50;;
63193;SDS011;49289;51.670;5.624;2023-06-14T10:03:12;1.50;;;1.40;;
63193;SDS011;49289;51.670;5.624;2023-06-14T10:05:02;2.00;;;1.70;;
63193;SDS011;49289;51.670;5.624;2023-06-14T10:06:50;3.70;;;1.60;;
63193;SDS011;49289;51.670;5.624;2023-06-14T10:08:37;1.70;;;1.60;;
63193;SDS011;49289;51.670;5.624;2023-06-14T10:10:24;1.90;;;1.60;;
63193;SDS011;49289;51.670;5.624;2023-06-14T10:12:12;1.50;;;1.40;;
63193;SDS011;49289;51.670;5.624;2023-06-14T10:14:00;1.50;;;1.40;;
63193;SDS011;49289;51.670;5.624;2023-06-14T10:15:51;3.50;;;1.70;;
63193;SDS011;49289;51.670;5.624;2023-06-14T10:17:39;1.70;;;1.60;;
63193;SDS011;49289;51.670;5.624;2023-06-14T10:19:27;2.70;;;1.50;;
63193;SDS011;49289;51.670;5.624;2023-06-14T10:21:16;1.60;;;1.50;;
63193;SDS011;49289;51.670;5.624;2023-06-14T10:23:05;2.80;;;1.60;;
63193;SDS011;49289;51.670;5.624;2023-06-14T10:24:50;2.10;;;1.90;;
63193;SDS011;49289;51.670;5.624;2023-06-14T10:26:40;1.60;;;1.50;;
63193;SDS011;49289;51.670;5.624;2023-06-14T10:28:35;1.50;;;1.40;;
63193;SDS011;49289;51.670;5.624;2023-06-14T10:30:23;2.60;;;1.20;;
63193;SDS011;49289;51.670;5.624;2023-06-14T10:32:11;2.50;;;1.40;;
63193;SDS011;49289;51.670;5.624;2023-06-14T10:34:01;1.90;;;1.40;;
63193;SDS011;49289;51.670;5.624;2023-06-14T10:35:48;2.50;;;1.60;;
63193;SDS011;49289;51.670;5.624;2023-06-14T10:37:35;2.50;;;1.30;;
63193;SDS011;49289;51.670;5.624;2023-06-14T10:39:22;2.00;;;1.50;;
63193;SDS011;49289;51.670;5.624;2023-06-14T10:41:09;1.80;;;1.70;;
63193;SDS011;49289;51.670;5.624;2023-06-14T10:42:56;2.50;;;1.30;;
63193;SDS011;49289;51.670;5.624;2023-06-14T10:44:45;2.60;;;1.60;;
63193;SDS011;49289;51.670;5.624;2023-06-14T10:46:34;1.50;;;1.40;;
63193;SDS011;49289;51.670;5.624;2023-06-14T10:48:30;2.80;;;1.40;;
63193;SDS011;49289;51.670;5.624;2023-06-14T10:50:19;1.40;;;1.30;;